sensor_id;sensor_type;location;lat;lon;timestamp;P1;durP1;ratioP1;P2;durP2;ratioP2
19004;SDS011;9635;52.078;8.648;2023-01-25T00:00:36;29.30;;;16.50;;
19004;SDS011;9635;52.078;8.648;2023-01-25T00:05:41;27.65;;;15.90;;
19004;SDS011;9635;52.078;8.648;2023-01-25T00:10:43;27.13;;;15.82;;
19004;SDS011;9635;52.078;8.648;2023-01-25T00:15:46;25.35;;;14.35;;
19004;SDS011;9635;52.078;8.648;2023-01-25T00:20:50;26.67;;;15.10;;
19004;SDS011;9635;52.078;8.648;2023-01-25T00:25:55;27.08;;;15.27;;
19004;SDS011;9635;52.078;8.648;2023-01-25T00:30:59;25.48;;;15.13;;
19004;SDS011;9635;52.078;8.648;2023-01-25T00:36:10;29.83;;;17.20;;
19004;SDS011;9635;52.078;8.648;2023-01-25T00:41:34;29.33;;;17.27;;
19004;SDS011;9635;52.078;8.648;2023-01-25T00:46:37;30.77;;;16.85;;
19004;SDS011;9635;52.078;8.648;2023-01-25T00:51:42;28.73;;;16.35;;
19004;SDS011;9635;52.078;8.648;2023-01-25T00:56:45;29.95;;;17.23;;
19004;SDS011;9635;52.078;8.648;2023-01-25T01:01:48;30.63;;;16.70;;
19004;SDS011;9635;52.078;8.648;2023-01-25T01:06:53;26.17;;;13.50;;
19004;SDS011;9635;52.078;8.648;2023-01-25T01:11:56;25.38;;;14.82;;
19004;SDS011;9635;52.078;8.648;2023-01-25T01:16:59;28.48;;;14.77;;
19004;SDS011;9635;52.078;8.648;2023-01-25T01:22:03;29.95;;;16.08;;
19004;SDS011;9635;52.078;8.648;2023-01-25T01:27:06;33.92;;;18.17;;
19004;SDS011;9635;52.078;8.648;2023-01-25T01:32:09;33.85;;;17.05;;
19004;SDS011;9635;52.078;8.648;2023-01-25T01:37:13;26.25;;;15.05;;
19004;SDS011;9635;52.078;8.648;2023-01-25T01:42:16;26.88;;;15.80;;
19004;SDS011;9635;52.078;8.648;2023-01-25T01:47:20;30.05;;;16.83;;
19004;SDS011;9635;52.078;8.648;2023-01-25T01:52:33;23.03;;;14.43;;
19004;SDS011;9635;52.078;8.648;2023-01-25T01:57:40;27.00;;;15.68;;
19004;SDS011;9635;52.078;8.648;2023-01-25T02:02:47;26.65;;;14.13;;
19004;SDS011;9635;52.078;8.648;2023-01-25T02:07:54;20.83;;;11.63;;
19004;SDS011;9635;52.078;8.648;2023-01-25T02:12:58;25.00;;;14.52;;
19004;SDS011;9635;52.078;8.648;2023-01-25T02:18:01;23.08;;;12.18;;
19004;SDS011;9635;52.078;8.648;2023-01-25T02:30:07;25.17;;;12.43;;
19004;SDS011;9635;52.078;8.648;2023-01-25T02:35:16;23.27;;;13.25;;
19004;SDS011;9635;52.078;8.648;2023-01-25T02:40:20;27.80;;;15.18;;
19004;SDS011;9635;52.078;8.648;2023-01-25T02:45:26;24.95;;;14.23;;
19004;SDS011;9635;52.078;8.648;2023-01-25T02:50:31;24.27;;;13.77;;
19004;SDS011;9635;52.078;8.648;2023-01-25T02:55:34;29.25;;;15.15;;
19004;SDS011;9635;52.078;8.648;2023-01-25T03:00:38;27.20;;;15.38;;
19004;SDS011;9635;52.078;8.648;2023-01-25T03:05:42;29.55;;;16.35;;
19004;SDS011;9635;52.078;8.648;2023-01-25T03:10:45;27.77;;;15.18;;
19004;SDS011;9635;52.078;8.648;2023-01-25T03:15:49;25.83;;;14.63;;
19004;SDS011;9635;52.078;8.648;2023-01-25T03:20:52;31.00;;;15.27;;
19004;SDS011;9635;52.078;8.648;2023-01-25T03:26:02;29.27;;;15.20;;
19004;SDS011;9635;52.078;8.648;2023-01-25T03:31:08;29.25;;;14.45;;
19004;SDS011;9635;52.078;8.648;2023-01-25T03:36:13;26.60;;;13.27;;
19004;SDS011;9635;52.078;8.648;2023-01-25T03:41:16;31.20;;;15.82;;
19004;SDS011;9635;52.078;8.648;2023-01-25T03:46:21;23.30;;;12.32;;
19004;SDS011;9635;52.078;8.648;2023-01-25T03:51:24;21.25;;;11.70;;
19004;SDS011;9635;52.078;8.648;2023-01-25T03:56:27;24.55;;;12.38;;
19004;SDS011;9635;52.078;8.648;2023-01-25T04:01:41;21.85;;;11.10;;
19004;SDS011;9635;52.078;8.648;2023-01-25T04:06:44;21.52;;;11.27;;
19004;SDS011;9635;52.078;8.648;2023-01-25T04:11:47;22.35;;;11.85;;
19004;SDS011;9635;52.078;8.648;2023-01-25T04:16:52;17.55;;;8.48;;
19004;SDS011;9635;52.078;8.648;2023-01-25T04:22:17;15.45;;;8.68;;
19004;SDS011;9635;52.078;8.648;2023-01-25T04:27:22;17.75;;;9.00;;
19004;SDS011;9635;52.078;8.648;2023-01-25T04:32:36;20.40;;;10.50;;
19004;SDS011;9635;52.078;8.648;2023-01-25T04:37:52;22.45;;;11.18;;
19004;SDS011;9635;52.078;8.648;2023-01-25T04:42:58;17.42;;;9.50;;
19004;SDS011;9635;52.078;8.648;2023-01-25T04:48:05;21.27;;;9.43;;
19004;SDS011;9635;52.078;8.648;2023-01-25T04:53:12;22.83;;;11.10;;
19004;SDS011;9635;52.078;8.648;2023-01-25T04:58:15;24.52;;;11.05;;
19004;SDS011;9635;52.078;8.648;2023-01-25T05:03:19;24.90;;;11.40;;
19004;SDS011;9635;52.078;8.648;2023-01-25T05:08:23;20.15;;;10.18;;
19004;SDS011;9635;52.078;8.648;2023-01-25T05:13:30;23.58;;;11.00;;
19004;SDS011;9635;52.078;8.648;2023-01-25T05:18:45;22.25;;;11.63;;
19004;SDS011;9635;52.078;8.648;2023-01-25T05:24:10;26.77;;;11.65;;
19004;SDS011;9635;52.078;8.648;2023-01-25T05:29:13;29.95;;;12.00;;
19004;SDS011;9635;52.078;8.648;2023-01-25T05:34:25;24.40;;;11.52;;
19004;SDS011;9635;52.078;8.648;2023-01-25T05:39:28;28.90;;;12.77;;
19004;SDS011;9635;52.078;8.648;2023-01-25T05:44:31;28.50;;;12.32;;
19004;SDS011;9635;52.078;8.648;2023-01-25T05:49:35;31.30;;;11.85;;
19004;SDS011;9635;52.078;8.648;2023-01-25T05:54:40;29.63;;;12.80;;
19004;SDS011;9635;52.078;8.648;2023-01-25T05:59:45;28.17;;;12.98;;
19004;SDS011;9635;52.078;8.648;2023-01-25T06:04:53;27.83;;;12.90;;
19004;SDS011;9635;52.078;8.648;2023-01-25T06:09:56;27.25;;;12.05;;
19004;SDS011;9635;52.078;8.648;2023-01-25T06:14:59;27.33;;;13.05;;
19004;SDS011;9635;52.078;8.648;2023-01-25T06:20:04;30.70;;;12.60;;
19004;SDS011;9635;52.078;8.648;2023-01-25T06:25:14;32.38;;;13.48;;
19004;SDS011;9635;52.078;8.648;2023-01-25T06:30:17;32.65;;;14.18;;
19004;SDS011;9635;52.078;8.648;2023-01-25T06:35:21;36.25;;;15.35;;
19004;SDS011;9635;52.078;8.648;2023-01-25T06:40:25;32.72;;;12.93;;
19004;SDS011;9635;52.078;8.648;2023-01-25T06:45:28;38.53;;;15.23;;
19004;SDS011;9635;52.078;8.648;2023-01-25T06:50:32;35.03;;;14.70;;
19004;SDS011;9635;52.078;8.648;2023-01-25T06:55:35;34.22;;;14.35;;
19004;SDS011;9635;52.078;8.648;2023-01-25T07:00:37;35.20;;;14.30;;
19004;SDS011;9635;52.078;8.648;2023-01-25T07:05:42;36.03;;;15.40;;
19004;SDS011;9635;52.078;8.648;2023-01-25T07:10:46;37.67;;;15.63;;
19004;SDS011;9635;52.078;8.648;2023-01-25T07:15:55;36.35;;;15.07;;
19004;SDS011;9635;52.078;8.648;2023-01-25T07:21:03;38.53;;;15.57;;
19004;SDS011;9635;52.078;8.648;2023-01-25T07:26:10;44.58;;;18.30;;
19004;SDS011;9635;52.078;8.648;2023-01-25T07:31:18;40.28;;;15.88;;
19004;SDS011;9635;52.078;8.648;2023-01-25T07:36:23;43.00;;;15.32;;
19004;SDS011;9635;52.078;8.648;2023-01-25T07:41:26;34.42;;;12.23;;
19004;SDS011;9635;52.078;8.648;2023-01-25T07:46:29;38.88;;;15.65;;
19004;SDS011;9635;52.078;8.648;2023-01-25T07:51:33;45.33;;;17.40;;
19004;SDS011;9635;52.078;8.648;2023-01-25T07:56:36;38.85;;;16.65;;
19004;SDS011;9635;52.078;8.648;2023-01-25T08:01:41;24.65;;;11.45;;
19004;SDS011;9635;52.078;8.648;2023-01-25T08:06:45;30.10;;;14.27;;
19004;SDS011;9635;52.078;8.648;2023-01-25T08:11:48;33.28;;;14.57;;
19004;SDS011;9635;52.078;8.648;2023-01-25T08:16:50;31.73;;;15.23;;
19004;SDS011;9635;52.078;8.648;2023-01-25T08:21:55;38.97;;;14.80;;
19004;SDS011;9635;52.078;8.648;2023-01-25T08:26:57;41.22;;;16.58;;
19004;SDS011;9635;52.078;8.648;2023-01-25T08:32:00;35.97;;;13.98;;
19004;SDS011;9635;52.078;8.648;2023-01-25T08:37:06;37.05;;;15.25;;
19004;SDS011;9635;52.078;8.648;2023-01-25T08:42:08;35.42;;;15.65;;
19004;SDS011;9635;52.078;8.648;2023-01-25T08:47:11;43.13;;;15.60;;
19004;SDS011;9635;52.078;8.648;2023-01-25T08:52:15;33.45;;;14.02;;
19004;SDS011;9635;52.078;8.648;2023-01-25T08:57:19;40.80;;;15.07;;
19004;SDS011;9635;52.078;8.648;2023-01-25T09:02:21;43.92;;;17.08;;
19004;SDS011;9635;52.078;8.648;2023-01-25T09:07:26;36.88;;;15.70;;
19004;SDS011;9635;52.078;8.648;2023-01-25T09:12:32;46.17;;;17.30;;
19004;SDS011;9635;52.078;8.648;2023-01-25T09:17:35;41.15;;;16.25;;
19004;SDS011;9635;52.078;8.648;2023-01-25T09:22:40;42.47;;;16.38;;
19004;SDS011;9635;52.078;8.648;2023-01-25T09:27:43;43.42;;;16.75;;
19004;SDS011;9635;52.078;8.648;2023-01-25T09:32:47;39.55;;;15.50;;
19004;SDS011;9635;52.078;8.648;2023-01-25T09:37:52;42.63;;;17.58;;
19004;SDS011;9635;52.078;8.648;2023-01-25T09:42:56;39.33;;;17.15;;
19004;SDS011;9635;52.078;8.648;2023-01-25T09:48:09;38.97;;;14.75;;
19004;SDS011;9635;52.078;8.648;2023-01-25T09:53:26;32.38;;;14.45;;
19004;SDS011;9635;52.078;8.648;2023-01-25T09:58:33;34.45;;;13.52;;
19004;SDS011;9635;52.078;8.648;2023-01-25T10:03:40;35.17;;;14.95;;
19004;SDS011;9635;52.078;8.648;2023-01-25T10:08:52;38.78;;;16.20;;
19004;SDS011;9635;52.078;8.648;2023-01-25T10:14:01;38.42;;;15.48;;
19004;SDS011;9635;52.078;8.648;2023-01-25T10:19:16;41.63;;;16.40;;
19004;SDS011;9635;52.078;8.648;2023-01-25T10:24:28;34.22;;;15.00;;
19004;SDS011;9635;52.078;8.648;2023-01-25T10:29:39;37.75;;;14.18;;
19004;SDS011;9635;52.078;8.648;2023-01-25T10:34:43;38.63;;;15.27;;
19004;SDS011;9635;52.078;8.648;2023-01-25T10:40:00;40.22;;;14.45;;
19004;SDS011;9635;52.078;8.648;2023-01-25T10:45:09;37.78;;;14.70;;
19004;SDS011;9635;52.078;8.648;2023-01-25T10:55:53;40.60;;;15.80;;
19004;SDS011;9635;52.078;8.648;2023-01-25T11:00:59;37.00;;;15.68;;
19004;SDS011;9635;52.078;8.648;2023-01-25T11:06:03;35.33;;;14.10;;
19004;SDS011;9635;52.078;8.648;2023-01-25T11:11:24;36.75;;;13.60;;
19004;SDS011;9635;52.078;8.648;2023-01-25T11:16:33;38.50;;;14.52;;
19004;SDS011;9635;52.078;8.648;2023-01-25T11:21:38;39.25;;;14.35;;
19004;SDS011;9635;52.078;8.648;2023-01-25T11:37:27;45.25;;;14.55;;
19004;SDS011;9635;52.078;8.648;2023-01-25T11:42:46;42.90;;;14.80;;
19004;SDS011;9635;52.078;8.648;2023-01-25T11:48:02;41.95;;;14.10;;
19004;SDS011;9635;52.078;8.648;2023-01-25T11:53:32;39.92;;;14.18;;
19004;SDS011;9635;52.078;8.648;2023-01-25T11:58:52;38.15;;;14.63;;
19004;SDS011;9635;52.078;8.648;2023-01-25T12:09:48;41.63;;;15.25;;
19004;SDS011;9635;52.078;8.648;2023-01-25T12:15:04;42.15;;;14.63;;
19004;SDS011;9635;52.078;8.648;2023-01-25T12:20:26;36.30;;;12.75;;
19004;SDS011;9635;52.078;8.648;2023-01-25T12:25:38;48.28;;;15.05;;
19004;SDS011;9635;52.078;8.648;2023-01-25T12:30:54;44.10;;;16.05;;
19004;SDS011;9635;52.078;8.648;2023-01-25T12:36:02;35.03;;;11.63;;
19004;SDS011;9635;52.078;8.648;2023-01-25T12:41:13;44.15;;;17.20;;
19004;SDS011;9635;52.078;8.648;2023-01-25T12:46:25;54.45;;;18.98;;
19004;SDS011;9635;52.078;8.648;2023-01-25T12:51:33;52.75;;;16.23;;
19004;SDS011;9635;52.078;8.648;2023-01-25T12:56:38;40.00;;;14.68;;
19004;SDS011;9635;52.078;8.648;2023-01-25T13:01:50;42.10;;;16.67;;
19004;SDS011;9635;52.078;8.648;2023-01-25T13:06:59;44.67;;;16.92;;
19004;SDS011;9635;52.078;8.648;2023-01-25T13:12:09;34.72;;;14.50;;
19004;SDS011;9635;52.078;8.648;2023-01-25T13:17:21;36.17;;;13.10;;
19004;SDS011;9635;52.078;8.648;2023-01-25T13:38:36;35.17;;;14.50;;
19004;SDS011;9635;52.078;8.648;2023-01-25T13:43:39;36.67;;;14.30;;
19004;SDS011;9635;52.078;8.648;2023-01-25T13:48:51;31.83;;;13.55;;
19004;SDS011;9635;52.078;8.648;2023-01-25T13:53:59;29.80;;;12.48;;
19004;SDS011;9635;52.078;8.648;2023-01-25T13:59:01;34.50;;;13.57;;
19004;SDS011;9635;52.078;8.648;2023-01-25T14:04:06;31.33;;;11.32;;
19004;SDS011;9635;52.078;8.648;2023-01-25T14:09:13;34.75;;;13.15;;
19004;SDS011;9635;52.078;8.648;2023-01-25T14:14:23;39.30;;;14.88;;
19004;SDS011;9635;52.078;8.648;2023-01-25T14:19:29;39.17;;;14.85;;
19004;SDS011;9635;52.078;8.648;2023-01-25T14:24:33;34.42;;;11.63;;
19004;SDS011;9635;52.078;8.648;2023-01-25T14:29:36;43.35;;;15.23;;
19004;SDS011;9635;52.078;8.648;2023-01-25T14:34:45;45.95;;;14.68;;
19004;SDS011;9635;52.078;8.648;2023-01-25T14:39:48;48.63;;;16.55;;
19004;SDS011;9635;52.078;8.648;2023-01-25T14:44:53;41.67;;;15.38;;
19004;SDS011;9635;52.078;8.648;2023-01-25T14:55:34;33.47;;;11.57;;
19004;SDS011;9635;52.078;8.648;2023-01-25T15:00:38;36.55;;;12.13;;
19004;SDS011;9635;52.078;8.648;2023-01-25T15:05:44;33.42;;;10.57;;
19004;SDS011;9635;52.078;8.648;2023-01-25T15:10:49;42.50;;;13.90;;
19004;SDS011;9635;52.078;8.648;2023-01-25T15:15:54;40.42;;;14.68;;
19004;SDS011;9635;52.078;8.648;2023-01-25T15:21:00;42.60;;;14.38;;
19004;SDS011;9635;52.078;8.648;2023-01-25T15:26:10;42.25;;;16.38;;
19004;SDS011;9635;52.078;8.648;2023-01-25T15:31:15;45.00;;;15.25;;
19004;SDS011;9635;52.078;8.648;2023-01-25T15:36:21;40.15;;;15.18;;
19004;SDS011;9635;52.078;8.648;2023-01-25T15:41:24;42.88;;;15.82;;
19004;SDS011;9635;52.078;8.648;2023-01-25T15:46:27;42.47;;;16.08;;
19004;SDS011;9635;52.078;8.648;2023-01-25T15:51:35;49.00;;;17.67;;
19004;SDS011;9635;52.078;8.648;2023-01-25T15:56:38;48.17;;;15.43;;
19004;SDS011;9635;52.078;8.648;2023-01-25T16:01:43;47.25;;;17.75;;
19004;SDS011;9635;52.078;8.648;2023-01-25T16:06:47;46.05;;;16.10;;
19004;SDS011;9635;52.078;8.648;2023-01-25T16:11:53;45.65;;;15.73;;
19004;SDS011;9635;52.078;8.648;2023-01-25T16:16:57;43.55;;;16.67;;
19004;SDS011;9635;52.078;8.648;2023-01-25T16:22:05;47.25;;;16.05;;
19004;SDS011;9635;52.078;8.648;2023-01-25T16:27:10;57.63;;;19.20;;
19004;SDS011;9635;52.078;8.648;2023-01-25T16:32:17;57.55;;;18.73;;
19004;SDS011;9635;52.078;8.648;2023-01-25T16:37:21;57.78;;;18.85;;
19004;SDS011;9635;52.078;8.648;2023-01-25T16:42:24;57.38;;;20.50;;
19004;SDS011;9635;52.078;8.648;2023-01-25T16:47:27;60.78;;;19.95;;
19004;SDS011;9635;52.078;8.648;2023-01-25T16:52:31;64.10;;;22.42;;
19004;SDS011;9635;52.078;8.648;2023-01-25T16:57:34;56.05;;;18.73;;
19004;SDS011;9635;52.078;8.648;2023-01-25T17:02:37;64.80;;;20.38;;
19004;SDS011;9635;52.078;8.648;2023-01-25T17:07:58;59.50;;;18.70;;
19004;SDS011;9635;52.078;8.648;2023-01-25T17:13:01;54.55;;;17.20;;
19004;SDS011;9635;52.078;8.648;2023-01-25T17:18:06;76.45;;;23.48;;
19004;SDS011;9635;52.078;8.648;2023-01-25T17:23:10;80.05;;;24.02;;
19004;SDS011;9635;52.078;8.648;2023-01-25T17:28:13;83.75;;;27.15;;
19004;SDS011;9635;52.078;8.648;2023-01-25T17:33:15;99.03;;;27.95;;
19004;SDS011;9635;52.078;8.648;2023-01-25T17:38:20;88.45;;;25.27;;
19004;SDS011;9635;52.078;8.648;2023-01-25T17:43:24;85.93;;;25.88;;
19004;SDS011;9635;52.078;8.648;2023-01-25T17:48:28;92.10;;;28.27;;
19004;SDS011;9635;52.078;8.648;2023-01-25T17:53:32;104.70;;;31.08;;
19004;SDS011;9635;52.078;8.648;2023-01-25T17:58:35;129.43;;;34.90;;
19004;SDS011;9635;52.078;8.648;2023-01-25T18:03:39;129.35;;;39.17;;
19004;SDS011;9635;52.078;8.648;2023-01-25T18:08:44;128.30;;;38.05;;
19004;SDS011;9635;52.078;8.648;2023-01-25T18:13:49;129.10;;;37.17;;
19004;SDS011;9635;52.078;8.648;2023-01-25T18:18:55;134.15;;;41.78;;
19004;SDS011;9635;52.078;8.648;2023-01-25T18:24:02;140.05;;;42.85;;
19004;SDS011;9635;52.078;8.648;2023-01-25T18:29:19;132.52;;;38.72;;
19004;SDS011;9635;52.078;8.648;2023-01-25T18:34:37;144.63;;;44.50;;
19004;SDS011;9635;52.078;8.648;2023-01-25T18:39:42;123.93;;;37.10;;
19004;SDS011;9635;52.078;8.648;2023-01-25T18:44:45;136.70;;;40.35;;
19004;SDS011;9635;52.078;8.648;2023-01-25T18:49:49;149.07;;;42.88;;
19004;SDS011;9635;52.078;8.648;2023-01-25T18:54:55;130.90;;;39.90;;
19004;SDS011;9635;52.078;8.648;2023-01-25T18:59:58;127.75;;;39.10;;
19004;SDS011;9635;52.078;8.648;2023-01-25T19:05:01;130.35;;;40.78;;
19004;SDS011;9635;52.078;8.648;2023-01-25T19:10:05;136.25;;;41.08;;
19004;SDS011;9635;52.078;8.648;2023-01-25T19:15:09;131.40;;;39.55;;
19004;SDS011;9635;52.078;8.648;2023-01-25T19:20:12;138.43;;;44.72;;
19004;SDS011;9635;52.078;8.648;2023-01-25T19:25:16;135.15;;;43.40;;
19004;SDS011;9635;52.078;8.648;2023-01-25T19:30:19;127.35;;;43.17;;
19004;SDS011;9635;52.078;8.648;2023-01-25T19:35:22;111.25;;;38.15;;
19004;SDS011;9635;52.078;8.648;2023-01-25T19:40:26;124.20;;;41.25;;
19004;SDS011;9635;52.078;8.648;2023-01-25T19:45:29;122.72;;;37.97;;
19004;SDS011;9635;52.078;8.648;2023-01-25T19:50:32;114.88;;;37.97;;
19004;SDS011;9635;52.078;8.648;2023-01-25T19:55:37;118.20;;;41.85;;
19004;SDS011;9635;52.078;8.648;2023-01-25T20:00:39;120.15;;;39.25;;
19004;SDS011;9635;52.078;8.648;2023-01-25T20:05:42;123.43;;;41.50;;
19004;SDS011;9635;52.078;8.648;2023-01-25T20:10:46;123.03;;;38.13;;
19004;SDS011;9635;52.078;8.648;2023-01-25T20:15:49;114.10;;;40.30;;
19004;SDS011;9635;52.078;8.648;2023-01-25T20:20:53;122.25;;;40.72;;
19004;SDS011;9635;52.078;8.648;2023-01-25T20:25:59;136.38;;;44.35;;
19004;SDS011;9635;52.078;8.648;2023-01-25T20:31:03;118.72;;;39.45;;
19004;SDS011;9635;52.078;8.648;2023-01-25T20:36:07;124.18;;;40.97;;
19004;SDS011;9635;52.078;8.648;2023-01-25T20:41:11;114.28;;;36.45;;
19004;SDS011;9635;52.078;8.648;2023-01-25T20:46:16;108.15;;;35.72;;
19004;SDS011;9635;52.078;8.648;2023-01-25T20:51:20;115.32;;;39.05;;
19004;SDS011;9635;52.078;8.648;2023-01-25T20:56:25;99.53;;;38.08;;
19004;SDS011;9635;52.078;8.648;2023-01-25T21:01:29;97.70;;;35.42;;
19004;SDS011;9635;52.078;8.648;2023-01-25T21:06:37;112.32;;;40.03;;
19004;SDS011;9635;52.078;8.648;2023-01-25T21:11:41;105.18;;;37.53;;
19004;SDS011;9635;52.078;8.648;2023-01-25T21:16:44;97.80;;;33.55;;
19004;SDS011;9635;52.078;8.648;2023-01-25T21:21:46;93.57;;;33.55;;
19004;SDS011;9635;52.078;8.648;2023-01-25T21:26:51;92.55;;;31.73;;
19004;SDS011;9635;52.078;8.648;2023-01-25T21:31:54;113.18;;;42.38;;
19004;SDS011;9635;52.078;8.648;2023-01-25T21:36:59;103.55;;;38.95;;
19004;SDS011;9635;52.078;8.648;2023-01-25T21:42:03;101.95;;;39.17;;
19004;SDS011;9635;52.078;8.648;2023-01-25T21:47:06;99.00;;;35.00;;
19004;SDS011;9635;52.078;8.648;2023-01-25T21:52:29;105.90;;;40.85;;
19004;SDS011;9635;52.078;8.648;2023-01-25T21:57:33;108.20;;;40.13;;
19004;SDS011;9635;52.078;8.648;2023-01-25T22:02:36;106.65;;;37.45;;
19004;SDS011;9635;52.078;8.648;2023-01-25T22:07:39;101.63;;;34.00;;
19004;SDS011;9635;52.078;8.648;2023-01-25T22:12:43;110.68;;;42.92;;
19004;SDS011;9635;52.078;8.648;2023-01-25T22:17:50;108.78;;;39.05;;
19004;SDS011;9635;52.078;8.648;2023-01-25T22:22:53;114.25;;;41.67;;
19004;SDS011;9635;52.078;8.648;2023-01-25T22:27:58;124.38;;;44.80;;
19004;SDS011;9635;52.078;8.648;2023-01-25T22:33:01;117.63;;;40.22;;
19004;SDS011;9635;52.078;8.648;2023-01-25T22:38:04;119.13;;;40.95;;
19004;SDS011;9635;52.078;8.648;2023-01-25T22:43:08;122.35;;;42.10;;
19004;SDS011;9635;52.078;8.648;2023-01-25T22:48:11;124.40;;;43.25;;
19004;SDS011;9635;52.078;8.648;2023-01-25T22:53:14;92.72;;;32.28;;
19004;SDS011;9635;52.078;8.648;2023-01-25T22:58:18;115.97;;;41.50;;
19004;SDS011;9635;52.078;8.648;2023-01-25T23:03:20;107.82;;;38.03;;
19004;SDS011;9635;52.078;8.648;2023-01-25T23:08:23;95.28;;;33.10;;
19004;SDS011;9635;52.078;8.648;2023-01-25T23:13:28;118.80;;;42.45;;
19004;SDS011;9635;52.078;8.648;2023-01-25T23:18:31;115.35;;;40.58;;
19004;SDS011;9635;52.078;8.648;2023-01-25T23:23:54;120.07;;;41.17;;
19004;SDS011;9635;52.078;8.648;2023-01-25T23:28:59;97.22;;;35.40;;
19004;SDS011;9635;52.078;8.648;2023-01-25T23:34:02;109.32;;;37.83;;
19004;SDS011;9635;52.078;8.648;2023-01-25T23:39:06;115.10;;;38.55;;
19004;SDS011;9635;52.078;8.648;2023-01-25T23:44:14;113.88;;;39.33;;
19004;SDS011;9635;52.078;8.648;2023-01-25T23:49:16;116.38;;;41.70;;
19004;SDS011;9635;52.078;8.648;2023-01-25T23:54:19;113.03;;;40.90;;
19004;SDS011;9635;52.078;8.648;2023-01-25T23:59:23;114.10;;;40.22;;
